Home > Products > Valid Products > TAF

000
FTUS42 KILM 050522
TAFCRE
TAF
KCRE 050522Z 0506/0606 20010KT 6SM BR VCSH FEW004 SCT045 BKN140
     FM051300 24007KT P6SM FEW040 SCT140 BKN250
     FM051600 20010KT P6SM FEW050 SCT140 SCT250=



000
FTUS42 KILM 050522
TAFILM
TAF
KILM 050522Z 0506/0606 21008KT P6SM VCSH FEW045 BKN140
     FM051300 26007KT P6SM FEW040 SCT140 BKN250
     FM051900 20009KT P6SM FEW050 SCT140 SCT250=



000
FTUS42 KILM 050522
TAFFLO
TAF
KFLO 050522Z 0506/0606 22006KT P6SM VCSH SCT050 SCT250
     FM051600 21008KT P6SM VCTS BKN050CB=



000
FTUS42 KILM 050522
TAFMYR
TAF
KMYR 050522Z 0506/0606 21009KT P6SM VCSH SCT045 BKN140
     FM051300 26008KT P6SM FEW040 SCT140 BKN250
     FM051700 19010KT P6SM FEW050 SCT140 SCT250
      AMD LTD TO CLD VIS AND WIND TIL 051100=



000
FTUS42 KILM 050522
TAFLBT
TAF
KLBT 050522Z 0506/0606 22006KT P6SM VCSH SCT050 SCT250
     FM051900 21008KT P6SM VCTS SCT050CB SCT150 BKN250=



000
FTUS42 KILM 042325
TAFCRE
TAF
KCRE 042325Z 0500/0524 20010KT P6SM VCSH SCT045 BKN140
     FM051300 24007KT P6SM FEW040 SCT140 BKN250
     FM051600 20010KT P6SM FEW050 SCT140 SCT250=



000
FTUS42 KILM 042325
TAFILM
TAF
KILM 042325Z 0500/0524 20008KT P6SM VCSH SCT140
     FM050900 24006KT P6SM VCSH SCT045 BKN140
     FM052000 20009KT P6SM FEW050 SCT140 SCT250=



000
FTUS42 KILM 042325
TAFMYR
TAF
KMYR 042325Z 0500/0524 20009KT P6SM VCSH SCT045 BKN140
     FM051300 26008KT P6SM FEW040 SCT140 BKN250
     FM051700 19010KT P6SM FEW050 SCT140 SCT250
      AMD LTD TO CLD VIS AND WIND 0504/0511=



000
FTUS42 KILM 042325
TAFFLO
TAF
KFLO 042325Z 0500/0524 22006KT P6SM VCSH SCT050 SCT250
     FM051600 21008KT P6SM VCTS BKN050CB=



000
FTUS42 KILM 042325
TAFCRE
TAF
KCRE 042325Z 0500/0524 20010KT P6SM VCSH SCT045 BKN140
     FM051300 24007KT P6SM FEW040 SCT140 BKN250
     FM051600 20010KT P6SM FEW050 SCT140 SCT250=



000
FTUS42 KILM 042325
TAFLBT
TAF
KLBT 042325Z 0500/0524 22006KT P6SM VCSH SCT050 SCT250
     FM051800 21008KT P6SM VCSH SCT050 SCT150 BKN250=



000
FTUS42 KILM 042325
TAFMYR
TAF
KMYR 042325Z 0500/0524 20009KT P6SM VCSH SCT045 BKN140
     FM051300 26008KT P6SM FEW040 SCT140 BKN250
     FM051700 19010KT P6SM FEW050 SCT140 SCT250
      AMD LTD TO CLD VIS AND WIND 0504/0511=



000
FTUS42 KILM 042325
TAFILM
TAF
KILM 042325Z 0500/0524 20008KT P6SM VCSH SCT140
     FM050900 24006KT P6SM VCSH SCT045 BKN140
     FM052000 20009KT P6SM FEW050 SCT140 SCT250=



000
FTUS42 KILM 042325
TAFFLO
TAF
KFLO 042325Z 0500/0524 22006KT P6SM VCSH SCT050 SCT250
     FM051600 21008KT P6SM VCTS BKN050CB=



000
FTUS42 KILM 042325
TAFLBT
TAF
KLBT 042325Z 0500/0524 22006KT P6SM VCSH SCT050 SCT250
     FM051800 21008KT P6SM VCSH SCT050 SCT150 BKN250=



000
FTUS42 KILM 041723
TAFFLO
TAF
KFLO 041723Z 0418/0518 24012KT P6SM VCSH SCT050
      TEMPO 0421/0424 4SM TSRA BKN035CB
     FM050000 20005KT P6SM VCSH FEW050 BKN250=



000
FTUS42 KILM 041723
TAFCRE
TAF
KCRE 041723Z 0418/0518 22014KT P6SM VCSH SCT050
      TEMPO 0421/0424 4SM TSRA BKN035CB
     FM050000 22010KT P6SM VCSH FEW050 BKN250=



000
FTUS42 KILM 041723
TAFLBT
TAF
KLBT 041723Z 0418/0518 24014KT P6SM VCSH SCT050
      TEMPO 0421/0424 4SM TSRA BKN035CB
     FM050000 21004KT P6SM VCSH FEW050 BKN250=



000
FTUS42 KILM 041723
TAFILM
TAF
KILM 041723Z 0418/0518 25015G24KT P6SM VCSH SCT050
      TEMPO 0422/0501 4SM TSRA BKN035CB
     FM050100 21006KT P6SM VCSH FEW050 BKN250=



000
FTUS42 KILM 041723
TAFMYR
TAF
KMYR 041723Z 0418/0518 23010G15KT P6SM VCSH SCT050
      TEMPO 0421/0424 4SM TSRA BKN035CB
     FM050000 22008KT P6SM VCSH FEW050 BKN250=



000
FTUS42 KILM 041723
TAFILM
TAF
KILM 041723Z 0418/0518 25015G24KT P6SM VCSH SCT050
      TEMPO 0422/0501 4SM TSRA BKN035CB
     FM050100 21006KT P6SM VCSH FEW050 BKN250=



000
FTUS42 KILM 041723
TAFLBT
TAF
KLBT 041723Z 0418/0518 24014KT P6SM VCSH SCT050
      TEMPO 0421/0424 4SM TSRA BKN035CB
     FM050000 21004KT P6SM VCSH FEW050 BKN250=



000
FTUS42 KILM 041723
TAFMYR
TAF
KMYR 041723Z 0418/0518 23010G15KT P6SM VCSH SCT050
      TEMPO 0421/0424 4SM TSRA BKN035CB
     FM050000 22008KT P6SM VCSH FEW050 BKN250=



000
FTUS42 KILM 041723
TAFFLO
TAF
KFLO 041723Z 0418/0518 24012KT P6SM VCSH SCT050
      TEMPO 0421/0424 4SM TSRA BKN035CB
     FM050000 20005KT P6SM VCSH FEW050 BKN250=



000
FTUS42 KILM 041723
TAFCRE
TAF
KCRE 041723Z 0418/0518 22014KT P6SM VCSH SCT050
      TEMPO 0421/0424 4SM TSRA BKN035CB
     FM050000 22010KT P6SM VCSH FEW050 BKN250=



000
FTUS42 KILM 041120
TAFLBT
TAF
KLBT 041120Z 0412/0512 24007KT P6SM VCSH SCT040 BKN120
      TEMPO 0412/0414 5SM -SHRA BKN040
     FM041400 26010G17KT P6SM FEW080 BKN200
     FM041800 24011G20KT P6SM VCSH SCT050 SCT250
     FM050000 21004KT P6SM FEW050 BKN250=



000
FTUS42 KILM 041120
TAFILM
TAF
KILM 041120Z 0412/0512 23007KT 6SM -SHRA SCT025 BKN050
     FM041400 26012G20KT P6SM SCT080 SCT100
     FM041800 23014G22KT P6SM VCSH SCT050 SCT250
     FM050000 21006KT P6SM FEW050 BKN250=



000
FTUS42 KILM 041120
TAFCRE
TAF
KCRE 041120Z 0412/0512 24007KT 6SM -SHRA SCT025 BKN050
     FM041400 26012G18KT P6SM SCT080 SCT100
     FM041800 23011G20KT P6SM VCSH SCT050 SCT250
     FM050000 22010KT P6SM FEW050 BKN250=



000
FTUS42 KILM 041120
TAFFLO
TAF
KFLO 041120Z 0412/0512 23006KT 6SM -SHRA BKN040
     FM041400 26010G17KT P6SM FEW080 BKN200
     FM041800 25011G20KT P6SM VCSH SCT050 SCT250
     FM050000 20005KT P6SM FEW050 BKN250=



000
FTUS42 KILM 041120
TAFMYR
TAF
KMYR 041120Z 0412/0512 24007KT 6SM -SHRA SCT025 BKN050
     FM041400 26012G18KT P6SM SCT080 SCT100
     FM041800 23011G20KT P6SM VCSH SCT050 SCT250
     FM050000 22008KT P6SM FEW050 BKN250=



000
FTUS42 KILM 041003 AAA
TAFLBT
TAF AMD
KLBT 041003Z 0410/0506 24007KT P6SM VCSH SCT040 BKN120
      TEMPO 0411/0413 5SM -SHRA BKN040
     FM041400 26010G17KT P6SM FEW080 BKN200
     FM041800 24011G20KT P6SM VCSH SCT050 SCT250
     FM050000 21004KT P6SM FEW050 BKN250=



000
FTUS42 KILM 041003 AAA
TAFLBT
TAF AMD
KLBT 041003Z 0410/0506 24007KT P6SM VCSH SCT040 BKN120
      TEMPO 0411/0413 5SM -SHRA BKN040
     FM041400 26010G17KT P6SM FEW080 BKN200
     FM041800 24011G20KT P6SM VCSH SCT050 SCT250
     FM050000 21004KT P6SM FEW050 BKN250=



000
FTUS42 KILM 041002 AAA
TAFFLO
TAF AMD
KFLO 041002Z 0410/0506 23006KT P6SM VCSH SCT040 BKN120
      TEMPO 0410/0412 5SM -SHRA BKN040
     FM041400 26010G17KT P6SM FEW080 BKN200
     FM041800 25011G20KT P6SM VCSH SCT050 SCT250
     FM050000 20005KT P6SM FEW050 BKN250=



000
FTUS42 KILM 041002 AAA
TAFFLO
TAF AMD
KFLO 041002Z 0410/0506 23006KT P6SM VCSH SCT040 BKN120
      TEMPO 0410/0412 5SM -SHRA BKN040
     FM041400 26010G17KT P6SM FEW080 BKN200
     FM041800 25011G20KT P6SM VCSH SCT050 SCT250
     FM050000 20005KT P6SM FEW050 BKN250=



000
FTUS42 KILM 040522
TAFFLO
TAF
KFLO 040522Z 0406/0506 25010KT P6SM FEW040 SCT120
     FM040800 23006KT P6SM VCSH SCT040 BKN120
     FM041400 26010G17KT P6SM FEW080 BKN200
     FM041800 25011G20KT P6SM VCSH SCT050 SCT250
     FM050000 20005KT P6SM FEW050 BKN250=



000
FTUS42 KILM 040522
TAFILM
TAF
KILM 040522Z 0406/0506 21011KT P6SM FEW020 SCT050 SCT120
     FM040800 23007KT P6SM VCSH SCT015 SCT070 BKN100
     FM041400 26012G20KT P6SM SCT080 SCT100
     FM041800 23014G22KT P6SM VCSH SCT050 SCT250
     FM050000 21006KT P6SM FEW050 BKN250=



000
FTUS42 KILM 040522
TAFCRE
TAF
KCRE 040522Z 0406/0506 22011KT P6SM FEW020 SCT050 SCT120
     FM040800 24007KT P6SM VCSH SCT015 SCT070 BKN100
     FM041400 26012G18KT P6SM SCT080 SCT100
     FM041800 23011G20KT P6SM VCSH SCT050 SCT250
     FM050000 22010KT P6SM FEW050 BKN250=



000
FTUS42 KILM 040522
TAFLBT
TAF
KLBT 040522Z 0406/0506 22009KT P6SM FEW040 SCT120
     FM040800 24007KT P6SM VCSH SCT040 BKN120
     FM041400 26010G17KT P6SM FEW080 BKN200
     FM041800 24011G20KT P6SM VCSH SCT050 SCT250
     FM050000 21004KT P6SM FEW050 BKN250=



000
FTUS42 KILM 040522
TAFMYR
TAF
KMYR 040522Z 0406/0506 21014KT P6SM FEW020 SCT050 SCT120
     FM040800 24007KT P6SM VCSH SCT015 SCT070 BKN100
     FM041400 26012G18KT P6SM SCT080 SCT100
     FM041800 23011G20KT P6SM VCSH SCT050 SCT250
     FM050000 22008KT P6SM FEW050 BKN250
      AMD LTD TO CLD VIS AND WIND TIL 041100=



000
FTUS42 KILM 032337
TAFCRE
TAF
KCRE 032337Z 0400/0424 22011KT P6SM SCT020 SCT050 SCT120
      TEMPO 0400/0404 SCT008 BKN020
     FM040800 24007KT P6SM VCSH SCT015 SCT070 BKN100
     FM041400 26012G18KT P6SM SCT080 SCT100
     FM041800 23011G20KT P6SM VCSH SCT050 SCT250=



000
FTUS42 KILM 032337
TAFILM
TAF
KILM 032337Z 0400/0424 21011KT P6SM SCT020 SCT050 SCT120
      TEMPO 0400/0404 SCT008 BKN020
     FM040800 23007KT P6SM VCSH SCT015 SCT070 BKN100
     FM041400 26012G20KT P6SM SCT080 SCT100
     FM041800 23014G22KT P6SM VCSH SCT050 SCT250=



000
FTUS42 KILM 032337
TAFMYR
TAF
KMYR 032337Z 0400/0424 21014KT P6SM SCT020 SCT050 SCT120
      TEMPO 0400/0404 SCT008 BKN020
     FM040800 24007KT P6SM VCSH SCT015 SCT070 BKN100
     FM041400 26012G18KT P6SM SCT080 SCT100
     FM041800 23011G20KT P6SM VCSH SCT050 SCT250
      AMD LTD TO CLD VIS AND WIND 0404/0411=



000
FTUS42 KILM 032337
TAFLBT
TAF
KLBT 032337Z 0400/0424 22009KT P6SM SCT015 SCT040 SCT120
     FM040800 24007KT P6SM VCSH SCT040 BKN120
     FM041400 26010G17KT P6SM FEW080 BKN200
     FM041800 24011G20KT P6SM VCSH SCT050 SCT250=



000
FTUS42 KILM 032337
TAFFLO
TAF
KFLO 032337Z 0400/0424 25010KT P6SM SCT040 SCT120
     FM040800 23006KT P6SM VCSH SCT040 BKN120
     FM041400 26010G17KT P6SM FEW080 BKN200
     FM041800 25011G20KT P6SM VCSH SCT050 SCT250=



000
FTUS42 KILM 031916 AAA
TAFILM
TAF AMD
KILM 031916Z 0319/0418 18011KT P6SM -SHRA VCTS SCT020 BKN050CB
      TEMPO 0319/0323 VRB15G25KT 4SM -TSRA
     FM040400 23007KT P6SM SCT070 BKN100
     FM041300 26012G18KT P6SM BKN080=



000
FTUS42 KILM 031721
TAFMYR
TAF
KMYR 031721Z 0318/0418 23012KT P6SM VCSH SCT015 BKN060
     FM032000 21014KT 4SM SHRA VCTS SCT020 BKN050CB
      TEMPO 0320/0324 3SM TSRA
     FM040400 24007KT P6SM SCT070 BKN100
     FM041300 26012G18KT P6SM BKN080=



000
FTUS42 KILM 031721
TAFLBT
TAF
KLBT 031721Z 0318/0418 21010KT 6SM -SHRA VCTS SCT015 SCT040CB
      BKN070
      TEMPO 0318/0321 5SM -SHRA OVC015
     FM040200 24007KT P6SM SCT050 BKN150
     FM041400 26010G17KT P6SM FEW080 BKN200=



000
FTUS42 KILM 031721
TAFCRE
TAF
KCRE 031721Z 0318/0418 22012KT P6SM VCSH SCT015 BKN060
     FM032000 22014KT 5SM -SHRA VCTS SCT020 BKN050CB
      TEMPO 0320/0324 4SM TSRA
     FM040400 24007KT P6SM SCT070 BKN100
     FM041300 26012G18KT P6SM BKN080=



000
FTUS42 KILM 031721
TAFCRE
TAF
KCRE 031721Z 0318/0418 22012KT P6SM VCSH SCT015 BKN060
     FM032000 22014KT 5SM -SHRA VCTS SCT020 BKN050CB
      TEMPO 0320/0324 4SM TSRA
     FM040400 24007KT P6SM SCT070 BKN100
     FM041300 26012G18KT P6SM BKN080=



000
FTUS42 KILM 031721
TAFLBT
TAF
KLBT 031721Z 0318/0418 21010KT 6SM -SHRA VCTS SCT015 SCT040CB
      BKN070
      TEMPO 0318/0321 5SM -SHRA OVC015
     FM040200 24007KT P6SM SCT050 BKN150
     FM041400 26010G17KT P6SM FEW080 BKN200=



000
FTUS42 KILM 031721
TAFMYR
TAF
KMYR 031721Z 0318/0418 23012KT P6SM VCSH SCT015 BKN060
     FM032000 21014KT 4SM SHRA VCTS SCT020 BKN050CB
      TEMPO 0320/0324 3SM TSRA
     FM040400 24007KT P6SM SCT070 BKN100
     FM041300 26012G18KT P6SM BKN080=



000
FTUS42 KILM 031721
TAFFLO
TAF
KFLO 031721Z 0318/0418 21010KT 6SM -SHRA VCTS SCT015 SCT040CB
      BKN070
      TEMPO 0318/0321 5SM -SHRA OVC010
     FM040000 24007KT P6SM SCT050 BKN150
     FM041400 26010G17KT P6SM FEW080 BKN200=



000
FTUS42 KILM 031721
TAFILM
TAF
KILM 031721Z 0318/0418 23012KT P6SM VCSH BKN018 BKN040
     FM032100 22012KT 6SM -SHRA VCTS SCT020 BKN050CB
      TEMPO 0321/0401 4SM -TSRA
     FM040400 23007KT P6SM SCT070 BKN100
     FM041300 26012G18KT P6SM BKN080=



000
FTUS42 KILM 031721
TAFILM
TAF
KILM 031721Z 0318/0418 23012KT P6SM VCSH BKN018 BKN040
     FM032100 22012KT 6SM -SHRA VCTS SCT020 BKN050CB
      TEMPO 0321/0401 4SM -TSRA
     FM040400 23007KT P6SM SCT070 BKN100
     FM041300 26012G18KT P6SM BKN080=



000
FTUS42 KILM 031721
TAFFLO
TAF
KFLO 031721Z 0318/0418 21010KT 6SM -SHRA VCTS SCT015 SCT040CB
      BKN070
      TEMPO 0318/0321 5SM -SHRA OVC010
     FM040000 24007KT P6SM SCT050 BKN150
     FM041400 26010G17KT P6SM FEW080 BKN200=



000
FTUS42 KILM 031542 AAA
TAFMYR
TAF AMD
KMYR 031542Z 0316/0412 24010KT P6SM VCSH SCT015 BKN060
     FM032000 21012KT 4SM SHRA VCTS SCT020 BKN050CB
     FM040400 24007KT P6SM SCT070 BKN100=



000
FTUS42 KILM 031541 AAA
TAFCRE
TAF AMD
KCRE 031541Z 0316/0412 24008KT P6SM VCSH SCT015 BKN060
     FM032000 21012KT 5SM -SHRA VCTS SCT020 BKN050CB
     FM040400 24007KT P6SM SCT070 BKN100=



000
FTUS42 KILM 031537 AAB
TAFILM
TAF AMD
KILM 031537Z 0316/0412 24008KT P6SM VCSH BKN012
     FM032100 20012KT 6SM -SHRA VCTS SCT020 BKN050CB
     FM040400 23007KT P6SM SCT070 BKN100=



000
FTUS42 KILM 031520 AAA
TAFLBT
TAF AMD
KLBT 031520Z 0315/0412 21010KT P6SM VCSH BKN006
      TEMPO 0315/0318 4SM SHRA BR SCT006 BKN012
     FM031800 21010KT 6SM -SHRA VCTS SCT015 SCT040CB BKN070
     FM040200 24007KT P6SM SCT050 BKN150=



000
FTUS42 KILM 031516 AAA
TAFFLO
TAF AMD
KFLO 031516Z 0315/0412 21010KT P6SM VCSH SCT015 SCT040 BKN070
      TEMPO 0315/0318 4SM SHRA BKN015
     FM031800 21010KT 6SM -SHRA VCTS SCT015 SCT040CB BKN070
     FM040000 24007KT P6SM SCT050 BKN150=



000
FTUS42 KILM 031148 CCB
TAFMYR
TAF COR
KMYR 031148Z 0312/0412 25009KT P6SM VCSH SCT015 BKN050
      TEMPO 0312/0315 5SM -SHRA BKN015
     FM031800 VRB20KT 3SM SHRA VCTS BKN020 BKN050CB
     FM032000 21015KT P6SM VCSH SCT060 BKN120
     FM040400 24007KT P6SM SCT070 BKN100=



000
FTUS42 KILM 031148 CCB
TAFILM
TAF COR
KILM 031148Z 0312/0412 24008KT P6SM VCSH SCT015 BKN050
      TEMPO 0312/0314 4SM -SHRA BKN015
     FM031900 VRB20KT 3SM SHRA VCTS BKN020 BKN050CB
     FM032100 22012KT P6SM VCSH SCT060 BKN120
     FM040400 23007KT P6SM SCT070 BKN100=



000
FTUS42 KILM 031147 CCA
TAFMYR
TAF COR
KMYR 031147Z 0312/0412 25009KT P6SM VCSH SCT015 BKN050
      TEMPO 0313/0315 5SM -SHRA BKN015
     FM031800 VRB20KT 3SM SHRA VCTS BKN020 BKN050CB
     FM032000 21015KT P6SM VCSH SCT060 BKN120
     FM040400 24007KT P6SM SCT070 BKN100=



000
FTUS42 KILM 031147 CCA
TAFCRE
TAF COR
KCRE 031147Z 0312/0412 24008KT P6SM VCSH FEW015 BKN050
      TEMPO 0312/0315 6SM -SHRA BKN015
     FM031800 VRB20KT 3SM SHRA VCTS BKN020 BKN050CB
     FM032000 21015KT P6SM VCSH SCT060 BKN120
     FM040400 24007KT P6SM SCT070 BKN100=



000
FTUS42 KILM 031147 CCA
TAFCRE
TAF COR
KCRE 031147Z 0312/0412 24008KT P6SM VCSH FEW015 BKN050
      TEMPO 0312/0315 6SM -SHRA BKN015
     FM031800 VRB20KT 3SM SHRA VCTS BKN020 BKN050CB
     FM032000 21015KT P6SM VCSH SCT060 BKN120
     FM040400 24007KT P6SM SCT070 BKN100=



000
FTUS42 KILM 031142 CCB
TAFILM
TAF COR
KILM 031142Z 0312/0412 24008KT P6SM VCSH SCT015 BKN050
      TEMPO 0312/0314 4SM -SHRA
     FM031900 VRB20KT 3SM SHRA VCTS BKN020 BKN050CB
     FM032100 22012KT P6SM VCSH SCT060 BKN120
     FM040400 23007KT P6SM SCT070 BKN100=



000
FTUS42 KILM 031142 CCB
TAFILM
TAF COR
KILM 031142Z 0312/0412 24008KT P6SM VCSH SCT015 BKN050
      TEMPO 0312/0314 4SM -SHRA
     FM031900 VRB20KT 3SM SHRA VCTS BKN020 BKN050CB
     FM032100 22012KT P6SM VCSH SCT060 BKN120
     FM040400 23007KT P6SM SCT070 BKN100=



000
FTUS42 KILM 031132 CCA
TAFFLO
TAF COR
KFLO 031132Z 0312/0412 22006KT 6SM BR BKN005
     FM031330 22006KT P6SM VCSH BKN007
     FM031500 23008KT P6SM VCSH BKN015 BKN070
     FM031700 VRB20KT 3SM SHRA VCTS SCT015 BKN050CB
     FM032000 24008KT P6SM VCSH BKN070
     FM040000 24007KT P6SM SCT050 BKN150=



000
FTUS42 KILM 031130
TAFMYR
TAF
KMYR 031130Z 0312/0412 25008KT P6SM VCSH FEW015 BKN050
      TEMPO 0313/0315 5SM -SHRA
     FM031800 VRB20KT 3SM SHRA VCTS BKN020 BKN050CB
     FM032000 21015KT P6SM VCSH SCT060 BKN120
     FM040400 24007KT P6SM SCT070 BKN100=



000
FTUS42 KILM 031130
TAFILM
TAF
KILM 031130Z 0312/0412 24008KT P6SM VCSH FEW015 BKN050
     FM031900 VRB20KT 3SM SHRA VCTS BKN020 BKN050CB
     FM032100 22012KT P6SM VCSH SCT060 BKN120
     FM040400 23007KT P6SM SCT070 BKN100=



000
FTUS42 KILM 031130
TAFLBT
TAF
KLBT 031130Z 0312/0412 22005KT P6SM VCSH BKN006
     FM031500 23008KT P6SM VCSH BKN015 BKN070
     FM031700 VRB20KT 3SM SHRA VCTS SCT015 BKN050CB
     FM032000 24008KT P6SM VCSH BKN070
     FM040000 24007KT P6SM SCT050 BKN150=



000
FTUS42 KILM 031130
TAFCRE
TAF
KCRE 031130Z 0312/0412 24008KT P6SM VCSH FEW015 BKN050
      TEMPO 0313/0315 6SM -SHRA
     FM031800 VRB20KT 3SM SHRA VCTS BKN020 BKN050CB
     FM032000 21015KT P6SM VCSH SCT060 BKN120
     FM040400 24007KT P6SM SCT070 BKN100=



000
FTUS42 KILM 031130
TAFFLO
TAF
KFLO 031130Z 0312/0412 22005KT P6SM BKN008
     FM031500 23008KT P6SM VCSH BKN015 BKN070
     FM031700 VRB20KT 3SM SHRA VCTS SCT015 BKN050CB
     FM032000 24008KT P6SM VCSH BKN070
     FM040000 24007KT P6SM SCT050 BKN150=



000
FTUS42 KILM 031130
TAFMYR
TAF
KMYR 031130Z 0312/0412 25008KT P6SM VCSH FEW015 BKN050
      TEMPO 0313/0315 5SM -SHRA
     FM031800 VRB20KT 3SM SHRA VCTS BKN020 BKN050CB
     FM032000 21015KT P6SM VCSH SCT060 BKN120
     FM040400 24007KT P6SM SCT070 BKN100=



000
FTUS42 KILM 031130
TAFCRE
TAF
KCRE 031130Z 0312/0412 24008KT P6SM VCSH FEW015 BKN050
      TEMPO 0313/0315 6SM -SHRA
     FM031800 VRB20KT 3SM SHRA VCTS BKN020 BKN050CB
     FM032000 21015KT P6SM VCSH SCT060 BKN120
     FM040400 24007KT P6SM SCT070 BKN100=



000
FTUS42 KILM 031130
TAFFLO
TAF
KFLO 031130Z 0312/0412 22005KT P6SM BKN008
     FM031500 23008KT P6SM VCSH BKN015 BKN070
     FM031700 VRB20KT 3SM SHRA VCTS SCT015 BKN050CB
     FM032000 24008KT P6SM VCSH BKN070
     FM040000 24007KT P6SM SCT050 BKN150=



000
FTUS42 KILM 031130
TAFLBT
TAF
KLBT 031130Z 0312/0412 22005KT P6SM VCSH BKN006
     FM031500 23008KT P6SM VCSH BKN015 BKN070
     FM031700 VRB20KT 3SM SHRA VCTS SCT015 BKN050CB
     FM032000 24008KT P6SM VCSH BKN070
     FM040000 24007KT P6SM SCT050 BKN150=



000
FTUS42 KILM 031130
TAFILM
TAF
KILM 031130Z 0312/0412 24008KT P6SM VCSH FEW015 BKN050
     FM031900 VRB20KT 3SM SHRA VCTS BKN020 BKN050CB
     FM032100 22012KT P6SM VCSH SCT060 BKN120
     FM040400 23007KT P6SM SCT070 BKN100=



000
FTUS42 KILM 031005 AAA
TAFLBT
TAF AMD
KLBT 031005Z 0310/0406 VRB05KT P6SM VCSH SCT007 BKN050
      TEMPO 0310/0312 3SM SHRA SCT007 BKN025
     FM031200 22005KT P6SM VCSH BKN007
     FM031500 23008KT P6SM VCSH BKN015 BKN070
     FM031700 24015G22KT P6SM VCTS SCT030 BKN050CB
     FM040200 22008KT P6SM VCSH SCT050 SCT250=



000
FTUS42 KILM 031001 AAA
TAFFLO
TAF AMD
KFLO 031001Z 0310/0406 22005KT P6SM VCSH BKN008
     FM031500 23008KT P6SM VCSH BKN015 BKN070
     FM031700 24015G22KT P6SM VCTS SCT030 BKN050CB
     FM040200 22010KT P6SM VCSH SCT050 SCT250=



000
FTUS42 KILM 030523
TAFCRE
TAF
KCRE 030523Z 0306/0406 24011KT P6SM -SHRA SCT020 SCT060 SCT100
     FM030800 23007KT P6SM VCSH SCT060 SCT080 BKN200
     FM031300 25008KT P6SM SCT045 SCT120
     FM031700 21018G26KT P6SM VCTS SCT030CB BKN120
     FM040200 23011G18KT P6SM VCSH SCT050 SCT250=



000
FTUS42 KILM 030523
TAFILM
TAF
KILM 030523Z 0306/0406 24011KT P6SM -SHRA SCT020 SCT040 SCT120
     FM030800 23007KT P6SM VCSH SCT060 SCT080 BKN200
     FM031300 26009KT P6SM SCT045 SCT120
     FM031700 21018G25KT P6SM VCTS SCT030CB BKN120
     FM040200 21011G20KT P6SM VCSH SCT050 SCT250=



000
FTUS42 KILM 030523
TAFFLO
TAF
KFLO 030523Z 0306/0406 20008KT P6SM VCSH SCT050 SCT120
     FM031300 24010KT P6SM SCT070 BKN200
     FM031600 24015G22KT P6SM VCTS SCT030 BKN050CB
     FM040200 22010KT P6SM VCSH SCT050 SCT250=



000
FTUS42 KILM 030523
TAFMYR
TAF
KMYR 030523Z 0306/0406 25011KT P6SM -SHRA SCT015 BKN030 OVC050
     FM030800 24007KT P6SM VCSH SCT060 SCT080 BKN200
     FM031300 26008KT P6SM SCT045 SCT120
     FM031700 21020G26KT P6SM VCTS SCT030CB BKN120
     FM040200 22011G18KT P6SM VCSH SCT050 SCT250
      AMD LTD TO CLD VIS AND WIND TIL 031100=



000
FTUS42 KILM 030523
TAFLBT
TAF
KLBT 030523Z 0306/0406 21007KT P6SM VCSH SCT050 SCT120
     FM031300 24010KT P6SM SCT070 BKN200
     FM031600 24012G20KT P6SM VCTS SCT030 BKN050CB
     FM040200 22008KT P6SM VCSH SCT050 SCT250=



000
FTUS42 KILM 030405 AAB
TAFFLO
TAF AMD
KFLO 030405Z 0304/0324 22008KT P6SM BKN006
     FM031300 24010KT P6SM SCT070 BKN200
     FM031600 24015G22KT P6SM VCTS SCT030 BKN050CB=



000
FTUS42 KILM 030235 AAA
TAFMYR
TAF AMD
KMYR 030235Z 0303/0324 25011KT P6SM -SHRA SCT015 BKN030 OVC050
     FM030800 24007KT P6SM VCSH SCT060 SCT080 BKN200
     FM031300 26008KT P6SM SCT045 SCT120
     FM031700 21020G26KT P6SM VCTS SCT030CB BKN120
      AMD LTD TO CLD VIS AND WIND 0304/0311=



000
FTUS42 KILM 030233 AAB
TAFCRE
TAF AMD
KCRE 030233Z 0303/0324 24011KT P6SM -SHRA FEW030 SCT060 SCT100
     FM030800 23007KT P6SM VCSH SCT060 SCT080 BKN200
     FM031300 25008KT P6SM SCT045 SCT120
     FM031700 22018G26KT P6SM VCTS SCT030CB BKN120=



000
FTUS42 KILM 030228 AAB
TAFILM
TAF AMD
KILM 030228Z 0302/0324 24011G20KT P6SM -SHRA FEW020 SCT040 SCT120
     FM030600 23007KT P6SM VCSH SCT060 SCT080 BKN200
     FM031300 26009KT P6SM SCT045 SCT120
     FM031700 21018G25KT P6SM VCTS SCT030CB BKN120=



000
FTUS42 KILM 030228 AAB
TAFILM
TAF AMD
KILM 030228Z 0302/0324 24011G20KT P6SM -SHRA FEW020 SCT040 SCT120
     FM030600 23007KT P6SM VCSH SCT060 SCT080 BKN200
     FM031300 26009KT P6SM SCT045 SCT120
     FM031700 21018G25KT P6SM VCTS SCT030CB BKN120=



000
FTUS42 KILM 030111 AAA
TAFCRE
TAF AMD
KCRE 030111Z 0301/0324 21011G26KT P6SM -SHRA SCT035 BKN050
      TEMPO 0301/0304 3SM -TSRA BKN025 BKN040CB
     FM030700 23007KT P6SM VCSH SCT060 SCT080 BKN200
     FM031300 25008KT P6SM SCT045 SCT120
     FM031700 22018G26KT P6SM VCTS SCT030CB BKN120=



000
FTUS42 KILM 030110 AAB
TAFILM
TAF AMD
KILM 030110Z 0301/0324 21015G25KT P6SM -SHRA SCT035 BKN050
      TEMPO 0301/0303 3SM RA BKN020
     FM030400 23007KT P6SM VCSH SCT060 SCT080 BKN200
     FM031300 26009KT P6SM SCT045 SCT120
     FM031700 21018G25KT P6SM VCTS SCT030CB BKN120=



000
FTUS42 KILM 030110 AAA
TAFLBT
TAF AMD
KLBT 030110Z 0301/0324 21010KT P6SM -SHRA FEW050 SCT120
     FM030600 22008KT P6SM VCSH BKN070
     FM031300 24010KT P6SM SCT070 BKN200
     FM031600 24012G20KT P6SM VCTS SCT030 BKN050CB=



000
FTUS42 KILM 030101 AAA
TAFFLO
TAF AMD
KFLO 030101Z 0301/0324 22008KT P6SM VCSH SCT050 SCT120
     FM031300 24010KT P6SM SCT070 BKN200
     FM031600 24015G22KT P6SM VCTS SCT030 BKN050CB=



000
FTUS42 KILM 022333 CCA
TAFILM
TAF COR
KILM 022333Z 0300/0324 21015G25KT P6SM -SHRA SCT035 BKN050
     FM030400 23007KT P6SM VCSH SCT060 SCT080 BKN200
     FM031300 26009KT P6SM SCT045 SCT120
     FM031700 21018G25KT P6SM VCTS SCT030CB BKN120=



000
FTUS42 KILM 022333 CCA
TAFILM
TAF COR
KILM 022333Z 0300/0324 21015G25KT P6SM -SHRA SCT035 BKN050
     FM030400 23007KT P6SM VCSH SCT060 SCT080 BKN200
     FM031300 26009KT P6SM SCT045 SCT120
     FM031700 21018G25KT P6SM VCTS SCT030CB BKN120=



000
FTUS42 KILM 022320
TAFILM
TAF
KILM 022320Z 0300/0324 21015G25KT P6SM -SHRA VCTS SCT035 BKN050CB
      TEMPO 0300/0302 VRB18G35KT 4SM -TSRA SCT025 BKN040CB
     FM030700 23007KT P6SM VCSH SCT060 SCT080 BKN200
     FM031300 26009KT P6SM SCT045 SCT120
     FM031700 21018G25KT P6SM VCTS SCT030CB BKN120=



000
FTUS42 KILM 022320
TAFCRE
TAF
KCRE 022320Z 0300/0324 21015G26KT P6SM -SHRA VCTS SCT035 BKN050CB
      TEMPO 0300/0302 VRB18G35KT 3SM -TSRA SCT025 BKN040CB
     FM030700 23007KT P6SM VCSH SCT060 SCT080 BKN200
     FM031300 25008KT P6SM SCT045 SCT120
     FM031700 22018G26KT P6SM VCTS SCT030CB BKN120=



000
FTUS42 KILM 022320
TAFLBT
TAF
KLBT 022320Z 0300/0324 18010KT P6SM -SHRA SCT040 BKN050
     FM030600 22008KT P6SM VCSH BKN070
     FM031300 24010KT P6SM SCT070 BKN200
     FM031600 24012G20KT P6SM VCTS SCT030 BKN050CB=



000
FTUS42 KILM 022320
TAFFLO
TAF
KFLO 022320Z 0300/0324 28015KT 6SM -SHRA VCTS SCT008 SCT020
      BKN050CB
      TEMPO 0300/0303 3SM +RA BKN020
     FM030300 23008KT P6SM VCSH SCT050 BKN070 BKN200
     FM031300 24010KT P6SM SCT070 BKN200
     FM031600 24015G22KT P6SM VCTS SCT030 BKN050CB=



000
FTUS42 KILM 022320
TAFMYR
TAF
KMYR 022320Z 0300/0324 20015G25KT P6SM -SHRA VCTS SCT035 BKN050CB
      TEMPO 0300/0302 VRB20G35KT 3SM -TSRA SCT025 BKN040CB
     FM030700 24007KT P6SM VCSH SCT060 SCT080 BKN200
     FM031300 26008KT P6SM SCT045 SCT120
     FM031700 21020G26KT P6SM VCTS SCT030CB BKN120
      AMD LTD TO CLD VIS AND WIND 0304/0311=



000
FTUS42 KILM 022111 AAA
TAFLBT
TAF AMD
KLBT 022111Z 0221/0318 23011KT P6SM SCT050 SCT110 BKN200
      TEMPO 0221/0224 VRB15G30KT 2SM +TSRA SCT015 BKN020CB OVC050
     FM030000 28010KT 6SM -SHRA VCTS BKN050CB
     FM030200 22008KT P6SM VCSH SCT060 SCT140 BKN200
     FM030600 22008KT P6SM VCSH BKN070
     FM031300 24010KT P6SM SCT070 BKN200=



000
FTUS42 KILM 022111 AAA
TAFFLO
TAF AMD
KFLO 022111Z 0221/0318 23008KT P6SM SCT050 SCT110 BKN200
      TEMPO 0221/0224 VRB15G30KT 2SM +TSRA SCT015 BKN020CB OVC050
     FM030000 28010KT 6SM -SHRA VCTS BKN050CB
     FM030200 22008KT P6SM VCSH SCT060 SCT140 BKN200
     FM030600 22008KT P6SM VCSH BKN070
     FM031300 24010KT P6SM SCT070 BKN200=



000
FTUS42 KILM 022111 AAA
TAFFLO
TAF AMD
KFLO 022111Z 0221/0318 23008KT P6SM SCT050 SCT110 BKN200
      TEMPO 0221/0224 VRB15G30KT 2SM +TSRA SCT015 BKN020CB OVC050
     FM030000 28010KT 6SM -SHRA VCTS BKN050CB
     FM030200 22008KT P6SM VCSH SCT060 SCT140 BKN200
     FM030600 22008KT P6SM VCSH BKN070
     FM031300 24010KT P6SM SCT070 BKN200=



000
FTUS42 KILM 021733
TAFFLO
TAF
KFLO 021733Z 0218/0318 23008KT P6SM SCT110 BKN200
     FM030000 28010KT 6SM -SHRA VCTS BKN050CB
     FM030200 22008KT P6SM VCSH SCT060 SCT140 BKN200
     FM030600 22008KT P6SM VCSH BKN070
     FM031300 24010KT P6SM SCT070 BKN200=



000
FTUS42 KILM 021733
TAFCRE
TAF
KCRE 021733Z 0218/0318 24010KT P6SM SCT040 SCT090
     FM030300 27010KT 6SM -SHRA VCTS BKN050CB
     FM030600 23007KT P6SM VCSH SCT060 SCT080 BKN200
     FM031300 25008KT P6SM SCT045 SCT120=



000
FTUS42 KILM 021733
TAFMYR
TAF
KMYR 021733Z 0218/0318 24010KT P6SM SCT040 SCT090
     FM030300 28010KT 6SM -SHRA VCTS BKN050CB
     FM030600 24007KT P6SM VCSH SCT060 SCT080 BKN200
     FM031300 26008KT P6SM SCT045 SCT120=



000
FTUS42 KILM 021733
TAFLBT
TAF
KLBT 021733Z 0218/0318 23008KT P6SM SCT110 BKN200
     FM030000 28010KT 6SM -SHRA VCTS BKN050CB
     FM030200 22008KT P6SM VCSH SCT060 SCT140 BKN200
     FM030600 22008KT P6SM VCSH BKN070
     FM031300 24010KT P6SM SCT070 BKN200=



000
FTUS42 KILM 021733
TAFILM
TAF
KILM 021733Z 0218/0318 23010KT P6SM SCT040 SCT090
     FM030400 27010KT 6SM -SHRA VCTS BKN050CB
     FM030700 23007KT P6SM VCSH SCT060 SCT080 BKN200
     FM031300 26009KT P6SM SCT045 SCT120=



000
FTUS42 KILM 021132
TAFFLO
TAF
KFLO 021132Z 0212/0312 26006KT P6SM SCT110 BKN200
     FM021900 23012KT P6SM VCSH SCT040 SCT250
     FM022200 21010KT P6SM VCTS BKN050CB
     FM030100 22008KT P6SM SCT060 SCT250
     FM030600 24008KT 4SM TSRA BKN050CB=



000
FTUS42 KILM 021132
TAFILM
TAF
KILM 021132Z 0212/0312 26008KT P6SM FEW030 SCT140
     FM021700 24008KT P6SM VCSH SCT040 SCT090 BKN140
     FM022100 21014KT P6SM SCT060 SCT150
     FM030400 22008KT P6SM SCT060 SCT120
     FM030900 25008KT 6SM -SHRA SCT060 BKN120=



000
FTUS42 KILM 021132
TAFMYR
TAF
KMYR 021132Z 0212/0312 26008KT P6SM FEW030 SCT140
     FM021800 23008KT P6SM VCSH SCT040 SCT090 BKN140
     FM022000 20016KT P6SM SCT060 SCT150
     FM030400 23009KT P6SM SCT060 SCT120
     FM030800 26008KT 6SM -SHRA SCT050 BKN120=



000
FTUS42 KILM 021132
TAFCRE
TAF
KCRE 021132Z 0212/0312 26008KT P6SM FEW030 SCT140
     FM021700 22008KT P6SM VCSH SCT040 SCT090 BKN140
     FM022000 20016KT P6SM SCT060 SCT150
     FM030400 23009KT P6SM SCT060 SCT120
     FM030800 27008KT 6SM -SHRA SCT050 BKN120=



000
FTUS42 KILM 021132
TAFLBT
TAF
KLBT 021132Z 0212/0312 26006KT P6SM SCT110 BKN200
     FM021900 23012KT P6SM VCSH SCT040 SCT250
     FM022200 21010KT P6SM VCTS BKN050CB
     FM030100 22008KT P6SM SCT060 SCT250
     FM030600 24008KT 4SM TSRA BKN050CB=



    US Dept of Commerce
    National Oceanic and Atmospheric Administration
    National Weather Service
    1325 East West Highway
    Silver Spring, MD 20910
    Page Author: NWS Internet Services Team
Disclaimer
Information Quality
Credits
Glossary
Privacy Policy
Freedom of Information Act (FOIA)
About Us
Career Opportunities